createdAt,value
2023-04-16T00:01:26.857Z,95706.22
2023-04-16T00:03:53.963Z,95702.25
2023-04-16T00:06:20.648Z,95694.50
2023-04-16T00:08:47.113Z,95702.09
2023-04-16T00:11:13.646Z,95700.44
2023-04-16T00:13:40.142Z,95705.38
2023-04-16T00:16:07.243Z,95703.72
2023-04-16T00:18:33.718Z,95703.41
2023-04-16T00:21:00.189Z,95702.47
2023-04-16T00:23:26.658Z,95705.09
2023-04-16T00:25:53.150Z,95713.00
2023-04-16T00:28:19.676Z,95715.28
2023-04-16T00:30:46.167Z,95708.38
2023-04-16T00:33:12.676Z,95702.94
2023-04-16T00:35:39.280Z,95706.59
2023-04-16T00:38:05.788Z,95703.47
2023-04-16T00:40:32.284Z,95705.44
2023-04-16T00:42:58.727Z,95711.31
2023-04-16T00:45:25.268Z,95711.16
2023-04-16T00:47:51.811Z,95718.41
2023-04-16T00:50:18.633Z,95715.09
2023-04-16T00:52:48.263Z,95713.31
2023-04-16T00:55:16.424Z,95715.94
2023-04-16T00:57:43.129Z,95715.94
2023-04-16T01:00:10.382Z,95710.69
2023-04-16T01:02:37.155Z,95707.56
2023-04-16T01:05:05.131Z,95713.34
2023-04-16T01:07:31.865Z,95707.13
2023-04-16T01:09:59.467Z,95704.94
2023-04-16T01:12:25.941Z,95707.44
2023-04-16T01:14:52.636Z,95694.78
2023-04-16T01:17:19.124Z,95690.00
2023-04-16T01:19:45.603Z,95697.56
2023-04-16T01:22:12.124Z,95698.91
2023-04-16T01:24:38.649Z,95702.84
2023-04-16T01:27:05.173Z,95701.53
2023-04-16T01:29:31.689Z,95715.97
2023-04-16T01:31:58.205Z,95705.78
2023-04-16T01:34:24.698Z,95712.69
2023-04-16T01:36:51.192Z,95711.03
2023-04-16T01:39:17.783Z,95714.81
2023-04-16T01:41:44.281Z,95715.66
2023-04-16T01:44:10.846Z,95725.88
2023-04-16T01:46:37.869Z,95717.00
2023-04-16T01:49:05.413Z,95710.09
2023-04-16T01:51:31.955Z,95722.56
2023-04-16T01:53:58.912Z,95723.56
2023-04-16T01:56:25.604Z,95720.94
2023-04-16T01:58:52.997Z,95722.88
2023-04-16T02:01:19.790Z,95727.50
2023-04-16T02:03:47.358Z,95729.47
2023-04-16T02:06:13.998Z,95732.09
2023-04-16T02:08:40.821Z,95727.50
2023-04-16T02:11:07.306Z,95726.03
2023-04-16T02:13:33.794Z,95725.19
2023-04-16T02:16:00.293Z,95728.81
2023-04-16T02:18:26.946Z,95717.31
2023-04-16T02:20:53.435Z,95721.28
2023-04-16T02:23:19.918Z,95719.28
2023-04-16T02:25:47.365Z,95732.56
2023-04-16T02:28:16.668Z,95728.47
2023-04-16T02:30:43.622Z,95726.50
2023-04-16T02:33:12.252Z,95728.16
2023-04-16T02:35:40.073Z,95731.75
2023-04-16T02:38:07.514Z,95736.72
2023-04-16T02:40:33.998Z,95733.66
2023-04-16T02:43:00.691Z,95730.06
2023-04-16T02:45:27.239Z,95735.69
2023-04-16T02:47:53.814Z,95727.63
2023-04-16T02:50:20.317Z,95727.81
2023-04-16T02:52:46.812Z,95731.41
2023-04-16T02:55:13.328Z,95724.84
2023-04-16T02:57:39.792Z,95718.78
2023-04-16T03:00:06.927Z,95716.47
2023-04-16T03:02:33.500Z,95720.25
2023-04-16T03:05:00.046Z,95728.16
2023-04-16T03:07:26.516Z,95732.59
2023-04-16T03:09:53.056Z,95728.69
2023-04-16T03:12:19.561Z,95723.25
2023-04-16T03:14:46.057Z,95721.28
2023-04-16T03:17:12.545Z,95727.84
2023-04-16T03:19:39.080Z,95714.38
2023-04-16T03:22:05.599Z,95713.03
2023-04-16T03:24:32.089Z,95713.56
2023-04-16T03:26:58.647Z,95710.56
2023-04-16T03:29:25.493Z,95713.19
2023-04-16T03:31:51.963Z,95714.38
2023-04-16T03:34:20.519Z,95717.34
2023-04-16T03:36:46.995Z,95717.97
2023-04-16T03:39:13.455Z,95716.66
2023-04-16T03:41:39.986Z,95718.97
2023-04-16T03:44:06.482Z,95710.09
2023-04-16T03:46:33.026Z,95717.00
2023-04-16T03:48:59.532Z,95714.03
2023-04-16T03:51:26.060Z,95721.63
2023-04-16T03:53:52.533Z,95724.88
2023-04-16T03:56:19.000Z,95721.78
2023-04-16T03:58:45.474Z,95730.13
2023-04-16T04:01:11.994Z,95726.06
2023-04-16T04:03:38.604Z,95718.00
2023-04-16T04:06:09.187Z,95719.97
2023-04-16T04:08:35.761Z,95719.66
2023-04-16T04:11:02.228Z,95722.59
2023-04-16T04:13:28.771Z,95718.97
2023-04-16T04:15:55.348Z,95721.78
2023-04-16T04:18:21.854Z,95727.22
2023-04-16T04:20:48.367Z,95720.13
2023-04-16T04:23:14.860Z,95721.28
2023-04-16T04:25:41.326Z,95723.91
2023-04-16T04:28:07.855Z,95723.97
2023-04-16T04:30:34.361Z,95740.41
2023-04-16T04:33:00.897Z,95742.38
2023-04-16T04:35:27.450Z,95733.16
2023-04-16T04:37:53.905Z,95739.56
2023-04-16T04:40:20.428Z,95738.09
2023-04-16T04:42:46.953Z,95729.19
2023-04-16T04:45:13.590Z,95729.19
2023-04-16T04:47:40.122Z,95734.78
2023-04-16T04:50:07.133Z,95733.81
2023-04-16T04:52:33.613Z,95735.31
2023-04-16T04:55:00.099Z,95739.41
2023-04-16T04:57:26.724Z,95740.56
2023-04-16T04:59:53.268Z,95744.34
2023-04-16T05:02:19.890Z,95745.16
2023-04-16T05:04:46.577Z,95743.03
2023-04-16T05:07:13.162Z,95750.44
2023-04-16T05:09:39.652Z,95748.78
2023-04-16T05:12:06.232Z,95746.31
2023-04-16T05:14:32.706Z,95744.34
2023-04-16T05:16:59.556Z,95737.44
2023-04-16T05:19:26.196Z,95739.41
2023-04-16T05:21:52.685Z,95751.28
2023-04-16T05:24:19.777Z,95742.72
2023-04-16T05:26:46.236Z,95752.25
2023-04-16T05:29:12.748Z,95754.22
2023-04-16T05:31:39.322Z,95748.13
2023-04-16T05:34:05.768Z,95752.72
2023-04-16T05:36:32.310Z,95747.97
2023-04-16T05:38:58.785Z,95749.94
2023-04-16T05:41:25.323Z,95748.28
2023-04-16T05:43:51.784Z,95745.94
2023-04-16T05:46:18.333Z,95747.28
2023-04-16T05:48:44.848Z,95749.25
2023-04-16T05:51:11.340Z,95742.66
2023-04-16T05:53:37.830Z,95740.53
2023-04-16T05:56:04.425Z,95746.47
2023-04-16T05:58:31.038Z,95747.28
2023-04-16T06:00:57.545Z,95748.59
2023-04-16T06:03:24.168Z,95750.22
2023-04-16T06:05:50.746Z,95752.69
2023-04-16T06:08:17.261Z,95757.16
2023-04-16T06:10:46.031Z,95751.88
2023-04-16T06:13:12.517Z,95749.91
2023-04-16T06:15:39.063Z,95757.63
2023-04-16T06:18:05.687Z,95756.78
2023-04-16T06:20:32.294Z,95757.31
2023-04-16T06:22:58.850Z,95758.78
2023-04-16T06:25:25.482Z,95754.16
2023-04-16T06:27:51.973Z,95766.66
2023-04-16T06:30:18.937Z,95757.44
2023-04-16T06:32:45.815Z,95758.28
2023-04-16T06:35:12.404Z,95751.53
2023-04-16T06:37:38.991Z,95752.66
2023-04-16T06:40:05.929Z,95757.25
2023-04-16T06:42:32.515Z,95754.44
2023-04-16T06:44:59.003Z,95746.72
2023-04-16T06:47:28.313Z,95754.13
2023-04-16T06:49:54.832Z,95750.13
2023-04-16T06:52:21.460Z,95753.41
2023-04-16T06:54:48.296Z,95758.97
2023-04-16T06:57:14.804Z,95757.69
2023-04-16T06:59:41.351Z,95759.28
2023-04-16T07:02:10.419Z,95746.72
2023-04-16T07:04:37.102Z,95757.41
2023-04-16T07:07:03.712Z,95752.63
2023-04-16T07:09:30.368Z,95755.91
2023-04-16T07:11:56.898Z,95750.63
2023-04-16T07:14:23.549Z,95761.34
2023-04-16T07:16:50.173Z,95761.84
2023-04-16T07:19:16.788Z,95768.44
2023-04-16T07:21:43.356Z,95781.13
2023-04-16T07:24:10.678Z,95773.13
2023-04-16T07:26:37.322Z,95777.41
2023-04-16T07:29:03.824Z,95776.91
2023-04-16T07:31:30.430Z,95781.66
2023-04-16T07:33:58.395Z,95781.66
2023-04-16T07:36:24.929Z,95777.72
2023-04-16T07:38:51.452Z,95780.00
2023-04-16T07:41:18.012Z,95788.09
2023-04-16T07:43:44.660Z,95788.44
2023-04-16T07:46:11.210Z,95780.19
2023-04-16T07:48:37.747Z,95792.38
2023-04-16T07:51:04.270Z,95790.75
2023-04-16T07:53:30.851Z,95794.53
2023-04-16T07:55:57.449Z,95793.22
2023-04-16T07:58:24.186Z,95795.88
2023-04-16T08:00:51.510Z,95795.34
2023-04-16T08:03:21.254Z,95797.34
2023-04-16T08:05:48.103Z,95792.38
2023-04-16T08:08:14.742Z,95797.47
2023-04-16T08:10:41.491Z,95800.44
2023-04-16T08:13:08.335Z,95805.03
2023-04-16T08:15:37.932Z,95810.50
2023-04-16T08:18:05.286Z,95804.38
2023-04-16T08:20:32.790Z,95809.66
2023-04-16T08:22:59.337Z,95809.97
2023-04-16T08:25:26.537Z,95809.31
2023-04-16T08:27:52.999Z,95814.25
2023-04-16T08:30:19.508Z,95820.78
2023-04-16T08:32:48.016Z,95819.16
2023-04-16T08:35:16.090Z,95817.50
2023-04-16T08:37:42.639Z,95813.50
2023-04-16T08:40:09.450Z,95825.06
2023-04-16T08:42:52.472Z,95820.72
2023-04-16T08:45:19.443Z,95821.06
2023-04-16T08:47:48.192Z,95824.66
2023-04-16T08:50:17.249Z,95824.97
2023-04-16T08:52:51.468Z,95825.56
2023-04-16T08:55:22.234Z,95824.84
2023-04-16T08:57:54.175Z,95829.53
2023-04-16T09:00:21.049Z,95826.81
2023-04-16T09:02:48.667Z,95832.09
2023-04-16T09:05:16.142Z,95834.41
2023-04-16T09:07:44.831Z,95829.63
2023-04-16T09:10:12.365Z,95834.03
2023-04-16T09:12:41.461Z,95841.66
2023-04-16T09:15:10.751Z,95844.59
2023-04-16T09:17:37.333Z,95849.59
2023-04-16T09:20:06.732Z,95845.22
2023-04-16T09:22:33.230Z,95860.28
2023-04-16T09:24:59.795Z,95850.31
2023-04-16T09:27:26.866Z,95852.91
2023-04-16T09:29:53.422Z,95841.41
2023-04-16T09:32:26.056Z,95849.28
2023-04-16T09:34:55.507Z,95852.22
2023-04-16T09:37:22.053Z,95855.50
2023-04-16T09:40:05.116Z,95847.53
2023-04-16T09:42:34.681Z,95851.28
2023-04-16T09:45:04.964Z,95851.06
2023-04-16T09:47:44.470Z,95855.66
2023-04-16T09:50:18.628Z,95853.13
2023-04-16T09:52:49.952Z,95847.38
2023-04-16T09:55:17.523Z,95849.41
2023-04-16T09:57:44.331Z,95853.78
2023-04-16T10:00:11.690Z,95853.03
2023-04-16T10:02:44.901Z,95847.41
2023-04-16T10:05:14.265Z,95854.00
2023-04-16T10:07:40.780Z,95851.47
2023-04-16T10:10:07.756Z,95862.03
2023-04-16T10:12:34.255Z,95853.28
2023-04-16T10:15:01.611Z,95864.22
2023-04-16T10:17:28.709Z,95868.00
2023-04-16T10:19:57.587Z,95861.38
2023-04-16T10:22:35.066Z,95862.09
2023-04-16T10:25:06.099Z,95858.56
2023-04-16T10:27:33.506Z,95858.00
2023-04-16T10:30:00.944Z,95859.28
2023-04-16T10:32:28.748Z,95859.16
2023-04-16T10:34:55.980Z,95864.59
2023-04-16T10:37:34.612Z,95855.31
2023-04-16T10:40:01.529Z,95865.88
2023-04-16T10:42:28.353Z,95859.63
2023-04-16T10:44:54.995Z,95866.22
2023-04-16T10:47:24.787Z,95872.78
2023-04-16T10:49:51.985Z,95863.16
2023-04-16T10:52:18.642Z,95875.47
2023-04-16T10:54:46.901Z,95861.75
2023-04-16T10:57:18.258Z,95875.06
2023-04-16T10:59:45.454Z,95868.91
2023-04-16T11:02:21.334Z,95871.72
2023-04-16T11:04:49.521Z,95872.72
2023-04-16T11:07:21.431Z,95874.53
2023-04-16T11:09:58.354Z,95866.38
2023-04-16T11:12:27.575Z,95860.09
2023-04-16T11:15:01.614Z,95864.72
2023-04-16T11:17:41.873Z,95867.22
2023-04-16T11:20:23.170Z,95870.78
2023-04-16T11:22:51.661Z,95872.06
2023-04-16T11:25:27.613Z,95873.84
2023-04-16T11:27:54.170Z,95876.28
2023-04-16T11:30:34.850Z,95872.59
2023-04-16T11:33:12.146Z,95878.19
2023-04-16T11:35:39.788Z,95866.31
2023-04-16T11:38:06.817Z,95872.91
2023-04-16T11:40:33.649Z,95870.25
2023-04-16T11:43:16.603Z,95873.97
2023-04-16T11:45:57.103Z,95872.56
2023-04-16T11:48:23.979Z,95858.81
2023-04-16T11:50:57.645Z,95866.22
2023-04-16T11:53:24.327Z,95857.66
2023-04-16T11:55:51.162Z,95865.13
2023-04-16T11:58:17.901Z,95862.13
2023-04-16T12:00:44.984Z,95863.97
2023-04-16T12:03:11.915Z,95865.88
2023-04-16T12:05:40.223Z,95858.88
2023-04-16T12:08:09.368Z,95855.78
2023-04-16T12:10:53.797Z,95866.19
2023-04-16T12:13:20.417Z,95854.78
2023-04-16T12:15:55.039Z,95863.44
2023-04-16T12:18:25.478Z,95865.28
2023-04-16T12:20:53.099Z,95864.91
2023-04-16T12:23:28.399Z,95863.69
2023-04-16T12:25:56.139Z,95861.06
2023-04-16T12:28:32.935Z,95870.84
2023-04-16T12:31:00.670Z,95866.81
2023-04-16T12:33:27.251Z,95864.38
2023-04-16T12:35:53.809Z,95866.28
2023-04-16T12:38:21.767Z,95866.72
2023-04-16T12:40:50.153Z,95869.44
2023-04-16T12:43:17.154Z,95865.53
2023-04-16T12:45:43.739Z,95854.41
2023-04-16T12:48:10.286Z,95865.34
2023-04-16T12:50:37.020Z,95865.03
2023-04-16T12:53:03.609Z,95865.38
2023-04-16T12:55:30.202Z,95861.56
2023-04-16T12:57:56.838Z,95865.25
2023-04-16T13:00:23.469Z,95852.16
2023-04-16T13:02:50.243Z,95859.75
2023-04-16T13:05:16.915Z,95855.22
2023-04-16T13:07:43.399Z,95856.56
2023-04-16T13:10:10.327Z,95851.06
2023-04-16T13:12:36.939Z,95847.66
2023-04-16T13:15:03.683Z,95851.53
2023-04-16T13:17:30.432Z,95846.72
2023-04-16T13:19:57.169Z,95847.41
2023-04-16T13:22:23.955Z,95849.38
2023-04-16T13:24:50.473Z,95850.81
2023-04-16T13:27:17.017Z,95848.91
2023-04-16T13:29:43.502Z,95849.81
2023-04-16T13:32:10.191Z,95852.22
2023-04-16T13:34:36.910Z,95848.38
2023-04-16T13:37:03.407Z,95843.03
2023-04-16T13:39:29.901Z,95849.59
2023-04-16T13:41:56.373Z,95843.75
2023-04-16T13:44:22.870Z,95847.66
2023-04-16T13:46:49.354Z,95846.13
2023-04-16T13:49:15.872Z,95849.50
2023-04-16T13:51:45.692Z,95845.56
2023-04-16T13:54:13.086Z,95840.91
2023-04-16T13:56:40.057Z,95839.63
2023-04-16T13:59:06.657Z,95845.31
2023-04-16T14:01:33.146Z,95838.00
2023-04-16T14:04:01.624Z,95843.09
2023-04-16T14:06:28.179Z,95832.44
2023-04-16T14:08:54.665Z,95838.47
2023-04-16T14:11:21.237Z,95841.00
2023-04-16T14:13:47.751Z,95834.34
2023-04-16T14:16:14.365Z,95835.63
2023-04-16T14:18:41.082Z,95847.50
2023-04-16T14:21:08.380Z,95843.31
2023-04-16T14:23:34.893Z,95843.66
2023-04-16T14:26:01.366Z,95842.91
2023-04-16T14:28:27.939Z,95844.56
2023-04-16T14:30:54.458Z,95848.59
2023-04-16T14:33:20.921Z,95838.00
2023-04-16T14:35:47.428Z,95840.72
2023-04-16T14:38:14.051Z,95840.72
2023-04-16T14:40:40.563Z,95835.88
2023-04-16T14:43:07.102Z,95846.34
2023-04-16T14:45:33.745Z,95842.84
2023-04-16T14:48:00.525Z,95840.59
2023-04-16T14:50:27.830Z,95844.25
2023-04-16T14:52:55.121Z,95844.78
2023-04-16T14:55:21.910Z,95840.13
2023-04-16T14:57:48.619Z,95836.59
2023-04-16T15:00:15.603Z,95835.06
2023-04-16T15:02:42.419Z,95838.69
2023-04-16T15:05:09.930Z,95838.94
2023-04-16T15:07:37.169Z,95836.59
2023-04-16T15:10:04.047Z,95830.84
2023-04-16T15:12:30.655Z,95834.97
2023-04-16T15:14:57.187Z,95832.25
2023-04-16T15:17:23.894Z,95831.59
2023-04-16T15:19:50.672Z,95835.06
2023-04-16T15:22:17.392Z,95832.69
2023-04-16T15:24:44.163Z,95837.06
2023-04-16T15:27:11.857Z,95837.25
2023-04-16T15:29:39.022Z,95840.69
2023-04-16T15:32:05.739Z,95842.53
2023-04-16T15:34:32.531Z,95842.69
2023-04-16T15:36:59.644Z,95840.25
2023-04-16T15:39:27.471Z,95841.56
2023-04-16T15:42:01.521Z,95843.22
2023-04-16T15:44:30.520Z,95840.19
2023-04-16T15:46:57.093Z,95843.88
2023-04-16T15:49:23.645Z,95834.63
2023-04-16T15:51:50.840Z,95837.16
2023-04-16T15:54:17.434Z,95836.72
2023-04-16T15:56:44.894Z,95836.47
2023-04-16T15:59:11.646Z,95843.09
2023-04-16T16:01:38.272Z,95839.84
2023-04-16T16:04:06.426Z,95845.88
2023-04-16T16:06:33.207Z,95851.50
2023-04-16T16:09:00.134Z,95847.78
2023-04-16T16:11:27.173Z,95851.13
2023-04-16T16:13:53.680Z,95851.56
2023-04-16T16:16:20.339Z,95853.78
2023-04-16T16:18:47.110Z,95853.69
2023-04-16T16:21:13.660Z,95855.25
2023-04-16T16:23:40.151Z,95856.00
2023-04-16T16:26:06.654Z,95851.72
2023-04-16T16:28:33.160Z,95863.56
2023-04-16T16:30:59.693Z,95857.72
2023-04-16T16:33:26.194Z,95868.00
2023-04-16T16:35:52.678Z,95868.00
2023-04-16T16:38:19.150Z,95866.94
2023-04-16T16:40:45.664Z,95856.13
2023-04-16T16:43:12.213Z,95860.34
2023-04-16T16:45:38.739Z,95864.75
2023-04-16T16:48:05.541Z,95864.75
2023-04-16T16:50:32.547Z,95878.78
2023-04-16T16:52:59.849Z,95872.03
2023-04-16T16:55:26.619Z,95871.44
2023-04-16T16:57:53.236Z,95878.31
2023-04-16T17:00:19.925Z,95881.03
2023-04-16T17:02:46.646Z,95879.91
2023-04-16T17:05:13.346Z,95880.78
2023-04-16T17:07:39.848Z,95878.94
2023-04-16T17:10:06.945Z,95878.03
2023-04-16T17:12:33.827Z,95890.09
2023-04-16T17:15:00.413Z,95882.34
2023-04-16T17:17:27.160Z,95874.13
2023-04-16T17:19:53.796Z,95887.41
2023-04-16T17:22:20.312Z,95889.59
2023-04-16T17:24:46.812Z,95883.56
2023-04-16T17:27:13.436Z,95892.44
2023-04-16T17:29:39.888Z,95895.19
2023-04-16T17:32:06.359Z,95891.66
2023-04-16T17:34:32.880Z,95889.78
2023-04-16T17:36:59.342Z,95885.78
2023-04-16T17:39:25.877Z,95887.81
2023-04-16T17:41:52.495Z,95889.81
2023-04-16T17:44:18.997Z,95888.19
2023-04-16T17:46:45.572Z,95884.22
2023-04-16T17:49:12.108Z,95889.19
2023-04-16T17:51:38.632Z,95886.84
2023-04-16T17:54:05.267Z,95884.88
2023-04-16T17:56:31.764Z,95891.63
2023-04-16T17:58:58.240Z,95889.47
2023-04-16T18:01:24.788Z,95888.78
2023-04-16T18:03:51.508Z,95891.28
2023-04-16T18:06:18.131Z,95889.78
2023-04-16T18:08:44.637Z,95884.88
2023-04-16T18:11:11.247Z,95877.31
2023-04-16T18:13:37.727Z,95884.88
2023-04-16T18:16:04.343Z,95880.44
2023-04-16T18:18:30.863Z,95878.25
2023-04-16T18:20:57.331Z,95884.88
2023-04-16T18:23:23.836Z,95877.28
2023-04-16T18:25:50.339Z,95882.25
2023-04-16T18:28:16.821Z,95884.19
2023-04-16T18:30:43.362Z,95882.91
2023-04-16T18:35:39.494Z,95888.50
2023-04-16T18:38:06.282Z,95890.78
2023-04-16T18:40:36.878Z,95892.91
2023-04-16T18:43:04.010Z,95891.00
2023-04-16T18:45:31.433Z,95892.63
2023-04-16T18:48:00.605Z,95893.75
2023-04-16T18:50:27.132Z,95892.78
2023-04-16T18:52:53.947Z,95893.13
2023-04-16T18:55:20.490Z,95903.00
2023-04-16T18:57:47.002Z,95905.28
2023-04-16T19:00:13.745Z,95908.28
2023-04-16T19:02:40.363Z,95908.56
2023-04-16T19:05:07.488Z,95905.31
2023-04-16T19:07:34.382Z,95911.91
2023-04-16T19:10:01.104Z,95919.13
2023-04-16T19:12:27.806Z,95918.81
2023-04-16T19:14:54.342Z,95919.63
2023-04-16T19:17:20.843Z,95912.38
2023-04-16T19:19:47.377Z,95918.47
2023-04-16T19:22:13.990Z,95921.41
2023-04-16T19:24:40.497Z,95918.75
2023-04-16T19:27:06.987Z,95919.75
2023-04-16T19:29:34.365Z,95914.66
2023-04-16T19:32:01.408Z,95924.72
2023-04-16T19:34:28.158Z,95918.81
2023-04-16T19:36:54.640Z,95923.09
2023-04-16T19:39:21.109Z,95913.19
2023-04-16T19:41:47.624Z,95927.06
2023-04-16T19:44:14.077Z,95915.16
2023-04-16T19:46:40.525Z,95924.41
2023-04-16T19:49:06.982Z,95930.66
2023-04-16T19:51:33.462Z,95915.13
2023-04-16T19:53:59.943Z,95923.03
2023-04-16T19:56:26.474Z,95922.09
2023-04-16T19:58:53.086Z,95917.97
2023-04-16T20:01:19.654Z,95931.31
2023-04-16T20:03:46.244Z,95926.69
2023-04-16T20:06:12.720Z,95926.72
2023-04-16T20:08:39.212Z,95922.94
2023-04-16T20:11:05.695Z,95912.38
2023-04-16T20:13:32.227Z,95914.88
2023-04-16T20:15:58.846Z,95910.56
2023-04-16T20:18:26.993Z,95905.66
2023-04-16T20:20:54.729Z,95897.75
2023-04-16T20:23:22.289Z,95899.38
2023-04-16T20:25:48.857Z,95901.38
2023-04-16T20:28:15.325Z,95896.09
2023-04-16T20:30:42.029Z,95898.88
2023-04-16T20:33:08.814Z,95897.09
2023-04-16T20:35:35.358Z,95900.38
2023-04-16T20:38:03.005Z,95902.66
2023-04-16T20:40:29.448Z,95893.63
2023-04-16T20:42:57.390Z,95898.06
2023-04-16T20:45:23.959Z,95898.22
2023-04-16T20:47:50.502Z,95890.81
2023-04-16T20:50:17.020Z,95892.16
2023-04-16T20:52:43.505Z,95894.28
2023-04-16T20:55:09.990Z,95889.16
2023-04-16T20:57:36.500Z,95883.59
2023-04-16T21:00:03.086Z,95882.91
2023-04-16T21:02:29.692Z,95884.41
2023-04-16T21:04:56.290Z,95869.44
2023-04-16T21:07:22.773Z,95864.09
2023-04-16T21:09:49.242Z,95865.78
2023-04-16T21:12:15.729Z,95860.03
2023-04-16T21:14:42.177Z,95860.97
2023-04-16T21:17:08.662Z,95854.88
2023-04-16T21:19:35.142Z,95862.63
2023-04-16T21:22:01.631Z,95851.13
2023-04-16T21:24:28.634Z,95848.81
2023-04-16T21:26:55.108Z,95853.22
2023-04-16T21:29:21.571Z,95849.41
2023-04-16T21:31:48.067Z,95844.94
2023-04-16T21:34:14.585Z,95860.31
2023-04-16T21:36:41.035Z,95843.91
2023-04-16T21:39:07.524Z,95842.88
2023-04-16T21:41:34.013Z,95838.09
2023-04-16T21:44:00.542Z,95847.31
2023-04-16T21:46:27.209Z,95836.00
2023-04-16T21:48:53.736Z,95851.56
2023-04-16T21:51:21.082Z,95845.25
2023-04-16T21:53:47.557Z,95843.97
2023-04-16T21:56:14.070Z,95846.00
2023-04-16T21:58:40.541Z,95861.78
2023-04-16T22:01:08.956Z,95843.28
2023-04-16T22:03:37.767Z,95845.38
2023-04-16T22:06:04.541Z,95837.13
2023-04-16T22:08:31.569Z,95846.81
2023-04-16T22:10:59.681Z,95846.03
2023-04-16T22:13:26.600Z,95836.44
2023-04-16T22:15:54.327Z,95840.06
2023-04-16T22:18:20.836Z,95831.63
2023-04-16T22:20:47.386Z,95813.25
2023-04-16T22:23:13.978Z,95820.47
2023-04-16T22:25:40.481Z,95808.91
2023-04-16T22:28:07.096Z,95808.25
2023-04-16T22:30:33.580Z,95811.41
2023-04-16T22:33:00.134Z,95813.03
2023-04-16T22:35:26.681Z,95799.19
2023-04-16T22:37:53.175Z,95795.91
2023-04-16T22:40:19.671Z,95792.69
2023-04-16T22:42:46.145Z,95789.25
2023-04-16T22:45:12.627Z,95781.88
2023-04-16T22:47:39.240Z,95789.59
2023-04-16T22:50:06.360Z,95795.78
2023-04-16T22:52:32.822Z,95786.34
2023-04-16T22:54:59.307Z,95784.50
2023-04-16T22:57:25.824Z,95782.69
2023-04-16T22:59:52.766Z,95785.63
2023-04-16T23:02:20.383Z,95782.75
2023-04-16T23:04:46.933Z,95789.97
2023-04-16T23:07:14.136Z,95776.38
2023-04-16T23:09:40.690Z,95778.03
2023-04-16T23:12:07.345Z,95782.75
2023-04-16T23:14:34.050Z,95778.41
2023-04-16T23:17:00.515Z,95775.84
2023-04-16T23:19:26.990Z,95771.88
2023-04-16T23:21:53.497Z,95776.69
2023-04-16T23:24:19.962Z,95780.44
2023-04-16T23:26:46.605Z,95779.19
2023-04-16T23:29:13.329Z,95770.50
2023-04-16T23:31:40.043Z,95790.25
2023-04-16T23:34:06.688Z,95772.75
2023-04-16T23:36:33.188Z,95779.75
2023-04-16T23:38:59.655Z,95784.00
2023-04-16T23:41:26.196Z,95773.94
2023-04-16T23:43:52.724Z,95770.41
2023-04-16T23:46:19.351Z,95774.59
2023-04-16T23:48:45.866Z,95775.47
2023-04-16T23:51:12.363Z,95770.47
2023-04-16T23:53:38.837Z,95762.50
2023-04-16T23:56:05.693Z,95761.72
2023-04-16T23:58:32.227Z,95750.41
